createdAt,value
2019-05-25T00:00:10.937Z,98342.13
2019-05-25T00:02:40.377Z,98343.88
2019-05-25T00:05:10.027Z,98343.09
2019-05-25T00:07:39.423Z,98344.00
2019-05-25T00:10:09.078Z,98344.81
2019-05-25T00:12:38.571Z,98344.48
2019-05-25T00:15:08.435Z,98341.93
2019-05-25T00:17:38.155Z,98337.27
2019-05-25T00:20:08.023Z,98337.45
2019-05-25T00:22:37.423Z,98337.91
2019-05-25T00:25:08.376Z,98338.38
2019-05-25T00:27:37.772Z,98335.01
2019-05-25T00:30:07.889Z,98337.55
2019-05-25T00:32:37.378Z,98340.67
2019-05-25T00:35:07.415Z,98336.72
2019-05-25T00:37:38.900Z,98337.20
2019-05-25T00:40:09.665Z,98344.73
2019-05-25T00:42:39.061Z,98339.94
2019-05-25T00:45:09.086Z,98341.27
2019-05-25T00:47:38.497Z,98341.78
2019-05-25T00:50:08.428Z,98342.62
2019-05-25T00:52:37.840Z,98343.05
2019-05-25T00:55:07.892Z,98341.92
2019-05-25T00:57:37.302Z,98336.80
2019-05-25T01:00:07.738Z,98348.50
2019-05-25T01:02:38.814Z,98347.77
2019-05-25T01:05:08.991Z,98347.44
2019-05-25T01:07:38.502Z,98348.44
2019-05-25T01:10:08.345Z,98346.39
2019-05-25T01:12:37.752Z,98350.89
2019-05-25T01:15:08.185Z,98352.88
2019-05-25T01:17:37.666Z,98354.08
2019-05-25T01:20:11.274Z,98360.37
2019-05-25T01:22:40.682Z,98356.98
2019-05-25T01:25:11.017Z,98358.23
2019-05-25T01:27:40.437Z,98361.06
2019-05-25T01:30:11.550Z,98363.34
2019-05-25T01:32:40.973Z,98360.42
2019-05-25T01:35:10.803Z,98361.22
2019-05-25T01:37:40.309Z,98356.83
2019-05-25T01:40:10.341Z,98359.39
2019-05-25T01:42:39.767Z,98359.50
2019-05-25T01:45:10.301Z,98350.32
2019-05-25T01:47:39.729Z,98346.00
2019-05-25T01:50:09.401Z,98353.76
2019-05-25T01:52:38.851Z,98348.91
2019-05-25T01:55:08.693Z,98351.11
2019-05-25T01:57:38.103Z,98354.18
2019-05-25T02:00:09.022Z,98358.52
2019-05-25T02:02:38.509Z,98361.56
2019-05-25T02:05:08.161Z,98365.45
2019-05-25T02:07:37.643Z,98366.69
2019-05-25T02:10:08.279Z,98368.98
2019-05-25T02:12:37.712Z,98373.56
2019-05-25T02:15:08.647Z,98374.73
2019-05-25T02:17:38.193Z,98376.20
2019-05-25T02:20:09.107Z,98374.17
2019-05-25T02:22:39.511Z,98378.23
2019-05-25T02:25:17.995Z,98379.08
2019-05-25T02:27:42.731Z,98379.72
2019-05-25T02:30:12.877Z,98384.36
2019-05-25T02:32:42.388Z,98384.14
2019-05-25T02:35:14.836Z,98382.09
2019-05-25T02:37:44.223Z,98383.13
2019-05-25T02:40:13.772Z,98381.73
2019-05-25T02:42:44.509Z,98385.53
2019-05-25T02:45:14.261Z,98392.52
2019-05-25T02:47:43.656Z,98385.48
2019-05-25T02:50:13.403Z,98381.88
2019-05-25T02:52:42.793Z,98380.47
2019-05-25T02:55:13.140Z,98371.63
2019-05-25T02:57:42.529Z,98378.28
2019-05-25T03:00:13.664Z,98378.53
2019-05-25T03:02:43.156Z,98375.94
2019-05-25T03:05:15.919Z,98377.19
2019-05-25T03:07:49.368Z,98375.95
2019-05-25T03:10:18.971Z,98373.74
2019-05-25T03:12:48.807Z,98369.84
2019-05-25T03:15:18.364Z,98366.25
2019-05-25T03:17:47.762Z,98365.75
2019-05-25T03:20:17.177Z,98363.48
2019-05-25T03:22:46.579Z,98367.86
2019-05-25T03:25:17.132Z,98372.58
2019-05-25T03:27:46.530Z,98368.63
2019-05-25T03:30:17.714Z,98376.08
2019-05-25T03:32:48.097Z,98375.66
2019-05-25T03:35:17.667Z,98374.91
2019-05-25T03:37:47.062Z,98375.44
2019-05-25T03:40:16.728Z,98386.56
2019-05-25T03:42:46.112Z,98383.88
2019-05-25T03:45:17.156Z,98388.03
2019-05-25T03:47:46.554Z,98392.20
2019-05-25T03:50:16.037Z,98394.53
2019-05-25T03:52:45.429Z,98398.58
2019-05-25T03:55:15.183Z,98397.67
2019-05-25T03:57:44.947Z,98403.03
2019-05-25T04:00:15.300Z,98406.55
2019-05-25T04:02:44.864Z,98409.07
2019-05-25T04:05:14.380Z,98400.81
2019-05-25T04:07:45.643Z,98410.38
2019-05-25T04:10:15.125Z,98409.31
2019-05-25T04:12:44.587Z,98408.45
2019-05-25T04:15:14.167Z,98412.38
2019-05-25T04:17:43.570Z,98414.03
2019-05-25T04:20:12.983Z,98404.27
2019-05-25T04:22:42.381Z,98408.94
2019-05-25T04:25:12.063Z,98411.93
2019-05-25T04:27:41.507Z,98414.49
2019-05-25T04:30:11.645Z,98421.11
2019-05-25T04:32:41.049Z,98420.16
2019-05-25T04:35:10.709Z,98419.14
2019-05-25T04:37:40.109Z,98430.67
2019-05-25T04:40:09.772Z,98426.70
2019-05-25T04:42:41.721Z,98422.81
2019-05-25T04:45:11.202Z,98433.32
2019-05-25T04:47:40.607Z,98430.92
2019-05-25T04:50:10.173Z,98426.16
2019-05-25T04:52:41.475Z,98428.41
2019-05-25T04:55:11.190Z,98432.24
2019-05-25T04:57:40.596Z,98429.50
2019-05-25T05:00:10.404Z,98428.56
2019-05-25T05:02:39.814Z,98431.92
2019-05-25T05:05:09.470Z,98429.71
2019-05-25T05:07:38.863Z,98431.44
2019-05-25T05:10:08.822Z,98422.39
2019-05-25T05:12:38.247Z,98429.84
2019-05-25T05:15:08.009Z,98426.61
2019-05-25T05:17:37.474Z,98426.58
2019-05-25T05:20:10.148Z,98426.55
2019-05-25T05:22:39.542Z,98432.27
2019-05-25T05:25:10.082Z,98433.73
2019-05-25T05:27:40.158Z,98433.88
2019-05-25T05:30:10.207Z,98434.26
2019-05-25T05:32:39.744Z,98437.67
2019-05-25T05:35:09.560Z,98436.13
2019-05-25T05:37:41.760Z,98434.48
2019-05-25T05:40:13.012Z,98436.52
2019-05-25T05:42:45.205Z,98439.73
2019-05-25T05:45:14.969Z,98444.52
2019-05-25T05:47:46.796Z,98443.06
2019-05-25T05:50:16.536Z,98439.78
2019-05-25T05:52:48.473Z,98440.53
2019-05-25T05:55:20.942Z,98445.53
2019-05-25T05:57:50.411Z,98441.62
2019-05-25T06:00:20.641Z,98443.69
2019-05-25T06:02:50.140Z,98450.09
2019-05-25T06:05:19.533Z,98456.76
2019-05-25T06:07:48.950Z,98455.39
2019-05-25T06:10:18.679Z,98452.34
2019-05-25T06:12:48.154Z,98456.75
2019-05-25T06:15:17.886Z,98461.70
2019-05-25T06:17:47.369Z,98469.52
2019-05-25T06:20:17.011Z,98460.44
2019-05-25T06:22:46.423Z,98469.89
2019-05-25T06:25:15.818Z,98467.63
2019-05-25T06:27:45.237Z,98468.41
2019-05-25T06:30:15.072Z,98475.55
2019-05-25T06:32:44.498Z,98473.16
2019-05-25T06:35:14.438Z,98474.89
2019-05-25T06:37:43.852Z,98480.94
2019-05-25T06:40:14.796Z,98484.20
2019-05-25T06:42:44.249Z,98481.08
2019-05-25T06:45:15.897Z,98481.69
2019-05-25T06:47:45.327Z,98480.58
2019-05-25T06:50:15.161Z,98478.25
2019-05-25T06:52:44.629Z,98485.19
2019-05-25T06:55:14.436Z,98481.97
2019-05-25T06:57:44.097Z,98488.98
2019-05-25T07:00:15.500Z,98491.17
2019-05-25T07:02:44.915Z,98499.71
2019-05-25T07:05:14.553Z,98495.82
2019-05-25T07:07:43.975Z,98498.20
2019-05-25T07:10:13.715Z,98496.94
2019-05-25T07:12:43.125Z,98502.11
2019-05-25T07:15:13.271Z,98496.74
2019-05-25T07:17:42.669Z,98500.83
2019-05-25T07:20:12.422Z,98509.88
2019-05-25T07:22:41.845Z,98507.84
2019-05-25T07:25:12.997Z,98514.45
2019-05-25T07:27:57.856Z,98519.01
2019-05-25T07:30:14.982Z,98511.14
2019-05-25T07:32:44.361Z,98516.31
2019-05-25T07:35:14.516Z,98522.09
2019-05-25T07:37:43.914Z,98515.22
2019-05-25T07:40:14.069Z,98515.17
2019-05-25T07:42:43.457Z,98513.72
2019-05-25T07:45:14.681Z,98520.35
2019-05-25T07:47:44.170Z,98516.15
2019-05-25T07:50:15.115Z,98523.08
2019-05-25T07:52:44.504Z,98528.48
2019-05-25T07:55:14.093Z,98527.19
2019-05-25T07:57:43.512Z,98534.29
2019-05-25T08:00:14.022Z,98530.17
2019-05-25T08:02:43.418Z,98526.58
2019-05-25T08:05:13.198Z,98527.25
2019-05-25T08:07:42.593Z,98530.61
2019-05-25T08:10:13.643Z,98535.68
2019-05-25T08:12:43.033Z,98541.22
2019-05-25T08:15:12.809Z,98531.21
2019-05-25T08:17:42.216Z,98535.09
2019-05-25T08:20:12.066Z,98528.42
2019-05-25T08:22:41.463Z,98535.74
2019-05-25T08:25:11.513Z,98531.14
2019-05-25T08:27:40.911Z,98531.09
2019-05-25T08:30:12.153Z,98532.22
2019-05-25T08:32:41.562Z,98539.11
2019-05-25T08:35:11.411Z,98538.56
2019-05-25T08:37:40.818Z,98534.33
2019-05-25T08:40:11.763Z,98534.44
2019-05-25T08:42:41.165Z,98536.34
2019-05-25T08:45:11.404Z,98536.72
2019-05-25T08:47:40.869Z,98537.63
2019-05-25T08:50:10.545Z,98536.59
2019-05-25T08:52:39.941Z,98540.58
2019-05-25T08:55:09.607Z,98541.66
2019-05-25T08:57:38.997Z,98549.05
2019-05-25T09:00:09.961Z,98545.73
2019-05-25T09:02:39.433Z,98541.31
2019-05-25T09:05:09.624Z,98546.77
2019-05-25T09:07:39.046Z,98550.11
2019-05-25T09:10:08.962Z,98551.39
2019-05-25T09:12:38.410Z,98550.27
2019-05-25T09:15:08.197Z,98547.34
2019-05-25T09:17:37.594Z,98556.38
2019-05-25T09:20:11.194Z,98548.16
2019-05-25T09:22:40.687Z,98546.26
2019-05-25T09:25:10.837Z,98542.39
2019-05-25T09:27:40.223Z,98543.44
2019-05-25T09:30:10.382Z,98547.10
2019-05-25T09:32:39.831Z,98546.13
2019-05-25T09:35:09.814Z,98544.98
2019-05-25T09:37:39.269Z,98550.95
2019-05-25T09:40:09.434Z,98545.25
2019-05-25T09:42:39.244Z,98552.11
2019-05-25T09:45:09.605Z,98557.44
2019-05-25T09:47:39.012Z,98563.08
2019-05-25T09:50:09.166Z,98559.97
2019-05-25T09:52:38.553Z,98559.14
2019-05-25T09:55:10.351Z,98552.95
2019-05-25T09:57:41.833Z,98552.02
2019-05-25T10:00:13.476Z,98552.36
2019-05-25T10:02:43.477Z,98552.31
2019-05-25T10:05:13.861Z,98550.30
2019-05-25T10:07:43.246Z,98551.41
2019-05-25T10:10:13.400Z,98543.88
2019-05-25T10:12:42.860Z,98546.73
2019-05-25T10:15:12.802Z,98546.64
2019-05-25T10:17:42.224Z,98549.09
2019-05-25T10:20:12.267Z,98543.17
2019-05-25T10:22:41.673Z,98550.38
2019-05-25T10:25:12.870Z,98552.05
2019-05-25T10:27:42.336Z,98541.35
2019-05-25T10:30:12.770Z,98550.56
2019-05-25T10:32:42.514Z,98549.77
2019-05-25T10:35:12.600Z,98549.80
2019-05-25T10:37:42.078Z,98541.61
2019-05-25T10:40:12.225Z,98542.28
2019-05-25T10:42:41.652Z,98538.73
2019-05-25T10:45:11.588Z,98539.20
2019-05-25T10:47:41.134Z,98534.25
2019-05-25T10:50:11.493Z,98528.03
2019-05-25T10:52:40.913Z,98520.81
2019-05-25T10:55:11.035Z,98515.90
2019-05-25T10:57:40.724Z,98508.79
2019-05-25T11:00:11.767Z,98509.18
2019-05-25T11:02:41.182Z,98509.19
2019-05-25T11:05:11.519Z,98506.33
2019-05-25T11:07:41.015Z,98504.50
2019-05-25T11:10:10.868Z,98501.75
2019-05-25T11:12:40.345Z,98496.45
2019-05-25T11:15:10.692Z,98491.09
2019-05-25T11:17:40.117Z,98490.79
2019-05-25T11:20:11.945Z,98491.89
2019-05-25T11:22:41.404Z,98484.14
2019-05-25T11:25:11.941Z,98490.36
2019-05-25T11:27:41.367Z,98476.53
2019-05-25T11:30:11.515Z,98475.42
2019-05-25T11:32:40.929Z,98472.70
2019-05-25T11:35:11.053Z,98480.70
2019-05-25T11:37:40.478Z,98477.22
2019-05-25T11:40:12.438Z,98482.45
2019-05-25T11:42:41.855Z,98488.77
2019-05-25T11:45:11.902Z,98491.10
2019-05-25T11:47:41.293Z,98480.35
2019-05-25T11:50:11.866Z,98471.52
2019-05-25T11:52:41.297Z,98462.97
2019-05-25T11:55:12.651Z,98463.44
2019-05-25T11:57:42.032Z,98446.45
2019-05-25T12:00:24.488Z,98454.64
2019-05-25T12:02:45.625Z,98450.02
2019-05-25T12:05:15.772Z,98448.73
2019-05-25T12:07:45.277Z,98447.30
2019-05-25T12:10:16.645Z,98447.16
2019-05-25T12:12:46.075Z,98442.58
2019-05-25T12:15:15.933Z,98434.83
2019-05-25T12:17:45.332Z,98434.28
2019-05-25T12:20:15.401Z,98431.63
2019-05-25T12:22:44.832Z,98427.61
2019-05-25T12:25:14.489Z,98434.23
2019-05-25T12:27:43.897Z,98433.98
2019-05-25T12:30:15.361Z,98430.30
2019-05-25T12:32:44.763Z,98430.55
2019-05-25T12:35:14.256Z,98425.65
2019-05-25T12:37:43.654Z,98427.00
2019-05-25T12:40:13.411Z,98430.59
2019-05-25T12:42:45.820Z,98429.77
2019-05-25T12:45:14.575Z,98428.86
2019-05-25T12:47:43.963Z,98424.29
2019-05-25T12:50:14.003Z,98419.92
2019-05-25T12:52:43.394Z,98419.45
2019-05-25T12:55:13.343Z,98415.73
2019-05-25T12:57:42.731Z,98415.44
2019-05-25T13:00:16.135Z,98416.84
2019-05-25T13:02:43.556Z,98423.95
2019-05-25T13:05:13.118Z,98422.66
2019-05-25T13:07:42.511Z,98417.81
2019-05-25T13:10:12.315Z,98402.66
2019-05-25T13:12:41.714Z,98402.66
2019-05-25T13:15:11.263Z,98416.05
2019-05-25T13:17:40.680Z,98413.41
2019-05-25T13:20:10.725Z,98411.00
2019-05-25T13:22:40.124Z,98407.42
2019-05-25T13:25:10.492Z,98417.66
2019-05-25T13:27:41.167Z,98421.52
2019-05-25T13:30:11.292Z,98416.34
2019-05-25T13:32:40.702Z,98419.77
2019-05-25T13:35:10.566Z,98413.31
2019-05-25T13:37:40.009Z,98408.11
2019-05-25T13:40:09.960Z,98405.30
2019-05-25T13:42:39.357Z,98403.01
2019-05-25T13:45:09.415Z,98400.17
2019-05-25T13:47:38.811Z,98396.38
2019-05-25T13:50:09.264Z,98404.50
2019-05-25T13:52:38.685Z,98404.01
2019-05-25T13:55:09.711Z,98394.14
2019-05-25T13:57:39.470Z,98395.38
2019-05-25T14:00:09.536Z,98396.34
2019-05-25T14:02:39.265Z,98399.08
2019-05-25T14:05:09.219Z,98403.02
2019-05-25T14:07:38.658Z,98404.50
2019-05-25T14:10:08.577Z,98404.45
2019-05-25T14:12:37.971Z,98399.73
2019-05-25T14:15:08.474Z,98393.59
2019-05-25T14:17:38.131Z,98390.79
2019-05-25T14:20:09.291Z,98402.25
2019-05-25T14:22:38.691Z,98400.34
2019-05-25T14:25:08.653Z,98400.80
2019-05-25T14:27:38.130Z,98404.08
2019-05-25T14:30:08.601Z,98405.81
2019-05-25T14:32:37.993Z,98398.94
2019-05-25T14:35:08.056Z,98407.19
2019-05-25T14:37:37.458Z,98405.36
2019-05-25T14:40:11.417Z,98405.58
2019-05-25T14:42:41.209Z,98406.15
2019-05-25T14:45:11.849Z,98406.66
2019-05-25T14:47:41.350Z,98408.14
2019-05-25T14:50:12.276Z,98410.70
2019-05-25T14:52:43.474Z,98413.11
2019-05-25T14:55:13.319Z,98415.35
2019-05-25T14:57:42.738Z,98410.08
2019-05-25T15:00:14.232Z,98415.09
2019-05-25T15:02:43.639Z,98414.44
2019-05-25T15:05:13.373Z,98420.47
2019-05-25T15:07:42.853Z,98414.48
2019-05-25T15:10:12.506Z,98409.28
2019-05-25T15:12:41.925Z,98415.15
2019-05-25T15:15:12.164Z,98415.50
2019-05-25T15:17:43.247Z,98412.16
2019-05-25T15:20:14.361Z,98414.16
2019-05-25T15:22:46.913Z,98414.97
2019-05-25T15:25:16.409Z,98419.61
2019-05-25T15:27:45.815Z,98413.95
2019-05-25T15:30:15.654Z,98421.20
2019-05-25T15:32:45.091Z,98420.21
2019-05-25T15:35:15.829Z,98422.83
2019-05-25T15:37:45.278Z,98423.24
2019-05-25T15:40:16.112Z,98427.16
2019-05-25T15:42:45.526Z,98422.07
2019-05-25T15:45:15.769Z,98420.85
2019-05-25T15:47:47.078Z,98421.89
2019-05-25T15:50:17.284Z,98417.80
2019-05-25T15:52:46.699Z,98427.19
2019-05-25T15:55:16.846Z,98426.71
2019-05-25T15:57:46.261Z,98421.03
2019-05-25T16:00:17.769Z,98420.05
2019-05-25T16:02:47.463Z,98419.57
2019-05-25T16:05:17.146Z,98426.56
2019-05-25T16:07:49.950Z,98423.09
2019-05-25T16:10:19.418Z,98428.45
2019-05-25T16:12:50.413Z,98427.75
2019-05-25T16:15:27.537Z,98429.56
2019-05-25T16:17:57.082Z,98430.95
2019-05-25T16:20:26.483Z,98430.98
2019-05-25T16:22:55.890Z,98438.63
2019-05-25T16:25:25.546Z,98434.66
2019-05-25T16:27:54.956Z,98429.68
2019-05-25T16:30:24.591Z,98434.77
2019-05-25T16:33:11.648Z,98440.97
2019-05-25T16:35:25.104Z,98441.81
2019-05-25T16:37:54.716Z,98450.36
2019-05-25T16:40:24.270Z,98445.47
2019-05-25T16:42:53.710Z,98446.76
2019-05-25T16:45:23.110Z,98449.03
2019-05-25T16:47:52.609Z,98454.13
2019-05-25T16:50:21.997Z,98446.48
2019-05-25T16:52:51.488Z,98454.01
2019-05-25T16:55:20.994Z,98455.89
2019-05-25T16:57:50.418Z,98443.36
2019-05-25T17:00:27.835Z,98443.47
2019-05-25T17:02:58.988Z,98452.48
2019-05-25T17:05:29.139Z,98448.36
2019-05-25T17:07:58.554Z,98450.93
2019-05-25T17:10:28.372Z,98449.36
2019-05-25T17:12:57.815Z,98448.20
2019-05-25T17:15:27.306Z,98451.52
2019-05-25T17:17:56.695Z,98452.43
2019-05-25T17:20:26.358Z,98449.39
2019-05-25T17:22:55.761Z,98453.23
2019-05-25T17:25:25.208Z,98461.89
2019-05-25T17:27:54.592Z,98463.48
2019-05-25T17:30:44.803Z,98459.03
2019-05-25T17:33:15.131Z,98458.02
2019-05-25T17:35:45.485Z,98459.78
2019-05-25T17:38:14.956Z,98460.31
2019-05-25T17:40:44.370Z,98460.74
2019-05-25T17:43:13.863Z,98457.81
2019-05-25T17:45:43.282Z,98466.75
2019-05-25T17:48:12.683Z,98462.20
2019-05-25T17:50:42.092Z,98467.15
2019-05-25T17:53:11.560Z,98470.71
2019-05-25T17:55:40.976Z,98461.70
2019-05-25T17:58:10.459Z,98465.36
2019-05-25T18:00:46.509Z,98472.65
2019-05-25T18:03:15.933Z,98471.14
2019-05-25T18:05:46.199Z,98473.00
2019-05-25T18:08:15.817Z,98475.56
2019-05-25T18:10:54.306Z,98478.34
2019-05-25T18:13:16.393Z,98478.78
2019-05-25T18:15:45.808Z,98477.30
2019-05-25T18:18:15.204Z,98481.24
2019-05-25T18:20:44.831Z,98487.92
2019-05-25T18:23:14.217Z,98482.51
2019-05-25T18:25:43.641Z,98479.66
2019-05-25T18:28:13.038Z,98481.38
2019-05-25T18:30:42.456Z,98477.75
2019-05-25T18:33:11.849Z,98477.69
2019-05-25T18:35:41.347Z,98478.16
2019-05-25T18:38:10.747Z,98475.91
2019-05-25T18:40:40.210Z,98476.00
2019-05-25T18:43:09.622Z,98482.74
2019-05-25T18:45:39.072Z,98484.14
2019-05-25T18:48:08.468Z,98487.48
2019-05-25T18:50:37.882Z,98481.36
2019-05-25T18:53:07.282Z,98488.81
2019-05-25T18:55:36.699Z,98482.74
2019-05-25T18:58:06.168Z,98481.30
2019-05-25T19:00:35.600Z,98488.33
2019-05-25T19:03:05.433Z,98485.61
2019-05-25T19:05:34.896Z,98484.83
2019-05-25T19:08:04.465Z,98490.22
2019-05-25T19:10:33.891Z,98488.98
2019-05-25T19:13:03.380Z,98487.61
2019-05-25T19:15:32.811Z,98494.85
2019-05-25T19:18:02.298Z,98493.45
2019-05-25T19:20:31.814Z,98497.69
2019-05-25T19:23:01.211Z,98496.88
2019-05-25T19:25:30.644Z,98494.67
2019-05-25T19:28:00.034Z,98499.93
2019-05-25T19:30:29.520Z,98499.94
2019-05-25T19:32:58.986Z,98508.58
2019-05-25T19:35:28.395Z,98508.27
2019-05-25T19:37:57.814Z,98522.25
2019-05-25T19:40:27.337Z,98517.87
2019-05-25T19:42:56.731Z,98521.38
2019-05-25T19:45:26.125Z,98520.36
2019-05-25T19:47:55.544Z,98530.81
2019-05-25T19:50:25.612Z,98531.55
2019-05-25T19:52:55.018Z,98537.95
2019-05-25T19:55:24.488Z,98542.63
2019-05-25T19:57:53.912Z,98543.43
2019-05-25T20:00:23.530Z,98556.58
2019-05-25T20:02:52.950Z,98560.34
2019-05-25T20:05:22.342Z,98562.13
2019-05-25T20:07:51.768Z,98557.00
2019-05-25T20:10:21.419Z,98568.70
2019-05-25T20:12:50.838Z,98570.52
2019-05-25T20:15:20.472Z,98570.64
2019-05-25T20:17:49.903Z,98571.24
2019-05-25T20:20:19.433Z,98570.29
2019-05-25T20:22:48.851Z,98579.70
2019-05-25T20:25:18.321Z,98578.02
2019-05-25T20:27:48.521Z,98577.73
2019-05-25T20:30:18.668Z,98584.39
2019-05-25T20:32:48.092Z,98580.23
2019-05-25T20:35:31.737Z,98584.36
2019-05-25T20:37:49.269Z,98583.80
2019-05-25T20:40:18.737Z,98588.59
2019-05-25T20:42:48.155Z,98593.81
2019-05-25T20:45:18.615Z,98592.50
2019-05-25T20:47:48.035Z,98593.67
2019-05-25T20:50:17.493Z,98598.33
2019-05-25T20:52:46.954Z,98598.48
2019-05-25T20:55:16.352Z,98605.77
2019-05-25T20:57:45.756Z,98602.85
2019-05-25T21:00:15.489Z,98605.98
2019-05-25T21:02:44.918Z,98610.58
2019-05-25T21:05:14.545Z,98610.70
2019-05-25T21:07:43.947Z,98614.92
2019-05-25T21:10:14.300Z,98617.58
2019-05-25T21:12:43.689Z,98618.78
2019-05-25T21:15:13.445Z,98618.12
2019-05-25T21:17:42.854Z,98620.47
2019-05-25T21:20:13.562Z,98617.33
2019-05-25T21:22:42.963Z,98623.03
2019-05-25T21:25:12.737Z,98622.25
2019-05-25T21:27:42.205Z,98622.34
2019-05-25T21:30:12.073Z,98621.61
2019-05-25T21:32:41.477Z,98619.91
2019-05-25T21:35:11.205Z,98628.14
2019-05-25T21:37:40.604Z,98624.89
2019-05-25T21:40:10.551Z,98622.78
2019-05-25T21:42:39.947Z,98618.55
2019-05-25T21:45:09.532Z,98617.95
2019-05-25T21:47:38.933Z,98612.10
2019-05-25T21:50:09.112Z,98612.00
2019-05-25T21:52:38.526Z,98609.00
2019-05-25T21:55:08.369Z,98608.60
2019-05-25T21:57:37.761Z,98608.16
2019-05-25T22:00:11.373Z,98606.72
2019-05-25T22:02:40.903Z,98606.40
2019-05-25T22:05:10.764Z,98604.63
2019-05-25T22:07:40.158Z,98603.75
2019-05-25T22:10:11.104Z,98602.56
2019-05-25T22:12:40.747Z,98606.30
2019-05-25T22:15:12.102Z,98607.81
2019-05-25T22:17:41.503Z,98611.55
2019-05-25T22:20:11.811Z,98601.98
2019-05-25T22:22:41.241Z,98608.83
2019-05-25T22:25:11.408Z,98609.45
2019-05-25T22:27:40.905Z,98606.00
2019-05-25T22:30:11.769Z,98601.24
2019-05-25T22:32:41.171Z,98599.78
2019-05-25T22:35:10.832Z,98611.75
2019-05-25T22:37:40.231Z,98611.83
2019-05-25T22:40:10.082Z,98610.59
2019-05-25T22:42:39.470Z,98612.86
2019-05-25T22:45:09.328Z,98610.83
2019-05-25T22:47:38.731Z,98610.52
2019-05-25T22:50:09.391Z,98611.93
2019-05-25T22:52:38.786Z,98615.44
2019-05-25T22:55:09.174Z,98610.09
2019-05-25T22:57:38.547Z,98604.41
2019-05-25T23:00:10.172Z,98604.00
2019-05-25T23:02:39.760Z,98603.70
2019-05-25T23:05:09.625Z,98608.16
2019-05-25T23:07:39.022Z,98610.08
2019-05-25T23:10:09.817Z,98606.17
2019-05-25T23:12:39.268Z,98604.47
2019-05-25T23:15:09.919Z,98606.67
2019-05-25T23:17:39.387Z,98605.34
2019-05-25T23:20:09.407Z,98604.48
2019-05-25T23:22:38.811Z,98605.88
2019-05-25T23:25:08.553Z,98602.50
2019-05-25T23:27:37.951Z,98599.05
2019-05-25T23:30:08.348Z,98599.00
2019-05-25T23:32:37.866Z,98605.53
2019-05-25T23:35:07.717Z,98606.03
2019-05-25T23:37:37.110Z,98602.01
2019-05-25T23:40:08.240Z,98598.86
2019-05-25T23:42:37.629Z,98607.51
2019-05-25T23:45:07.682Z,98595.66
2019-05-25T23:47:37.078Z,98595.28
2019-05-25T23:50:07.317Z,98596.68
2019-05-25T23:52:36.935Z,98596.80
2019-05-25T23:55:06.883Z,98589.88
2019-05-25T23:57:36.272Z,98589.64
